Time;durP1;ratioP1;P1;durP2;ratioP2;P2;SDS_P1;SDS_P2;PMS_P1;PMS_P2;Temp;Humidity;BMP_temperature;BMP_pressure;BME280_temperature;BME280_humidity;BME280_pressure;Samples;Min_cycle;Max_cycle;Signal;HPM_P1;HPM_P2
2022/10/08 00:02:19;;;;;;;19.48;14.20;;;;;;;;;;5045059;28;20052;-43
2022/10/08 00:04:45;;;;;;;18.90;13.90;;;;;;;;;;5046810;28;20035;-43
2022/10/08 00:07:10;;;;;;;19.13;14.10;;;;;;;;;;5046748;28;20048;-43
2022/10/08 00:09:35;;;;;;;15.60;12.95;;;;;;;;;;5050033;28;20033;-42
2022/10/08 00:12:01;;;;;;;19.02;11.80;;;;;;;;;;5045892;28;20047;-46
2022/10/08 00:14:26;;;;;;;19.17;13.45;;;;;;;;;;5045376;28;20465;-43
2022/10/08 00:16:51;;;;;;;21.70;13.23;;;;;;;;;;5045290;28;20134;-43
2022/10/08 00:19:17;;;;;;;16.30;13.73;;;;;;;;;;5047154;28;20032;-43
2022/10/08 00:21:44;;;;;;;17.52;13.18;;;;;;;;;;5046492;28;20027;-42
2022/10/08 00:24:15;;;;;;;15.32;11.15;;;;;;;;;;5045803;28;20520;-44
2022/10/08 00:26:40;;;;;;;17.38;11.38;;;;;;;;;;5045892;28;20048;-42
2022/10/08 00:29:07;;;;;;;18.05;11.43;;;;;;;;;;5042949;28;20040;-44
2022/10/08 00:31:39;;;;;;;15.93;13.05;;;;;;;;;;5046196;28;20041;-46
2022/10/08 00:34:07;;;;;;;24.17;13.13;;;;;;;;;;5043318;28;20049;-43
2022/10/08 00:36:38;;;;;;;21.40;14.38;;;;;;;;;;5047092;28;20052;-43
2022/10/08 00:39:11;;;;;;;20.48;12.43;;;;;;;;;;5044885;28;20049;-42
2022/10/08 00:41:37;;;;;;;16.13;10.13;;;;;;;;;;5044880;28;20043;-42
2022/10/08 00:44:41;;;;;;;14.93;11.02;;;;;;;;;;5045223;28;20120;-45
2022/10/08 00:47:18;;;;;;;15.60;12.32;;;;;;;;;;5044073;28;20198;-46
2022/10/08 00:49:45;;;;;;;15.98;12.63;;;;;;;;;;5042921;28;20072;-42
2022/10/08 00:52:11;;;;;;;15.93;12.63;;;;;;;;;;5045505;28;20490;-45
2022/10/08 00:54:37;;;;;;;20.27;12.90;;;;;;;;;;5046154;28;20056;-45
2022/10/08 00:57:02;;;;;;;16.63;12.65;;;;;;;;;;5046972;28;20049;-43
2022/10/08 00:59:28;;;;;;;20.08;13.32;;;;;;;;;;5044106;28;20090;-42
2022/10/08 01:01:54;;;;;;;16.67;12.93;;;;;;;;;;5047630;28;20032;-44
2022/10/08 01:04:19;;;;;;;17.00;14.20;;;;;;;;;;5045680;28;20025;-43
2022/10/08 01:07:09;;;;;;;14.73;12.70;;;;;;;;;;5045995;28;20618;-44
2022/10/08 01:09:37;;;;;;;16.20;13.38;;;;;;;;;;5047672;28;20517;-42
2022/10/08 01:12:47;;;;;;;20.52;13.23;;;;;;;;;;5045489;28;20052;-42
2022/10/08 01:15:46;;;;;;;14.68;13.15;;;;;;;;;;5031644;28;20401;-42
2022/10/08 01:18:31;;;;;;;18.90;13.50;;;;;;;;;;5045395;28;20465;-43
2022/10/08 01:21:15;;;;;;;21.02;13.73;;;;;;;;;;5047547;28;20029;-43
2022/10/08 01:24:19;;;;;;;16.17;14.48;;;;;;;;;;5044248;28;20136;-42
2022/10/08 01:27:33;;;;;;;17.17;12.65;;;;;;;;;;5042509;28;20444;-42
2022/10/08 01:30:07;;;;;;;15.32;12.32;;;;;;;;;;5035571;28;20070;-42
2022/10/08 01:32:41;;;;;;;14.60;12.95;;;;;;;;;;5042153;28;20037;-45
2022/10/08 01:35:12;;;;;;;17.75;12.93;;;;;;;;;;5046223;28;20028;-45
2022/10/08 01:37:41;;;;;;;15.02;12.18;;;;;;;;;;5044849;28;20037;-44
2022/10/08 01:40:19;;;;;;;14.13;12.43;;;;;;;;;;5045267;28;20057;-43
2022/10/08 01:42:48;;;;;;;18.80;12.52;;;;;;;;;;5048441;28;20068;-46
2022/10/08 01:45:17;;;;;;;15.02;10.70;;;;;;;;;;5047353;28;20029;-42
2022/10/08 01:47:44;;;;;;;17.05;11.48;;;;;;;;;;5043792;28;20076;-43
2022/10/08 01:50:13;;;;;;;16.27;10.77;;;;;;;;;;5045349;28;20025;-45
2022/10/08 01:52:49;;;;;;;18.20;10.88;;;;;;;;;;5045331;28;20042;-45
2022/10/08 01:55:19;;;;;;;12.13;10.93;;;;;;;;;;5046982;28;20117;-42
2022/10/08 01:57:46;;;;;;;16.67;10.75;;;;;;;;;;5042635;28;20046;-44
2022/10/08 02:00:13;;;;;;;16.92;11.15;;;;;;;;;;5047837;28;20025;-43
2022/10/08 02:02:39;;;;;;;14.70;11.00;;;;;;;;;;5045402;28;20044;-42
2022/10/08 02:05:05;;;;;;;13.18;11.13;;;;;;;;;;5028908;28;20428;-43
2022/10/08 02:07:35;;;;;;;11.77;10.02;;;;;;;;;;5045138;28;20041;-44
2022/10/08 02:10:08;;;;;;;17.67;10.40;;;;;;;;;;5043518;28;20384;-44
2022/10/08 02:12:34;;;;;;;13.18;11.05;;;;;;;;;;5047513;28;20128;-43
2022/10/08 02:15:03;;;;;;;15.15;10.68;;;;;;;;;;5044669;28;20116;-43
2022/10/08 02:17:38;;;;;;;15.93;11.15;;;;;;;;;;5044757;28;20172;-43
2022/10/08 02:20:12;;;;;;;14.60;10.90;;;;;;;;;;5044298;28;20104;-47
2022/10/08 02:22:50;;;;;;;13.82;10.50;;;;;;;;;;5041879;28;20059;-45
2022/10/08 02:25:23;;;;;;;11.52;9.32;;;;;;;;;;5043280;28;20057;-45
2022/10/08 02:28:10;;;;;;;11.93;9.48;;;;;;;;;;5043721;28;20048;-42
2022/10/08 02:30:41;;;;;;;12.35;9.50;;;;;;;;;;5041895;28;20025;-43
2022/10/08 02:33:20;;;;;;;10.80;8.95;;;;;;;;;;5044996;28;20400;-42
2022/10/08 02:35:50;;;;;;;10.43;9.30;;;;;;;;;;5044540;28;20035;-44
2022/10/08 02:38:38;;;;;;;13.07;9.65;;;;;;;;;;5043346;28;20442;-43
2022/10/08 02:41:06;;;;;;;14.25;10.02;;;;;;;;;;5033899;28;20037;-46
2022/10/08 02:43:36;;;;;;;13.50;9.43;;;;;;;;;;5045115;28;20063;-44
2022/10/08 02:46:15;;;;;;;13.10;10.20;;;;;;;;;;5046974;28;20027;-42
2022/10/08 02:48:48;;;;;;;14.25;9.95;;;;;;;;;;5047734;28;20044;-43
2022/10/08 02:51:17;;;;;;;13.90;9.95;;;;;;;;;;5047833;28;20067;-43
2022/10/08 02:53:44;;;;;;;10.88;9.10;;;;;;;;;;5047476;28;20514;-45
2022/10/08 02:56:15;;;;;;;12.10;9.85;;;;;;;;;;5045342;28;20100;-42
2022/10/08 02:58:42;;;;;;;12.10;8.80;;;;;;;;;;5049473;28;20064;-42
2022/10/08 03:01:14;;;;;;;10.98;8.60;;;;;;;;;;5050274;28;20021;-45
2022/10/08 03:03:47;;;;;;;10.10;9.10;;;;;;;;;;5046651;28;20120;-46
2022/10/08 03:06:15;;;;;;;12.90;9.27;;;;;;;;;;5048522;28;20070;-43
2022/10/08 03:08:45;;;;;;;11.98;9.02;;;;;;;;;;5044891;28;20040;-43
2022/10/08 03:11:12;;;;;;;9.52;8.63;;;;;;;;;;5046860;28;20186;-42
2022/10/08 03:13:42;;;;;;;11.00;8.35;;;;;;;;;;5046083;28;20061;-45
2022/10/08 03:16:12;;;;;;;10.63;8.00;;;;;;;;;;5049766;28;20017;-43
2022/10/08 03:18:39;;;;;;;11.88;8.18;;;;;;;;;;5044975;28;20037;-42
2022/10/08 03:21:07;;;;;;;15.10;8.32;;;;;;;;;;5047456;28;20158;-44
2022/10/08 03:23:33;;;;;;;10.63;8.65;;;;;;;;;;5048427;28;20503;-45
2022/10/08 03:25:58;;;;;;;11.13;7.80;;;;;;;;;;5047808;28;20045;-43
2022/10/08 03:28:23;;;;;;;9.25;7.68;;;;;;;;;;5047315;28;20037;-42
2022/10/08 03:30:49;;;;;;;14.48;7.78;;;;;;;;;;5047688;28;20082;-46
2022/10/08 03:33:14;;;;;;;9.52;7.80;;;;;;;;;;5045890;28;20116;-43
2022/10/08 03:35:46;;;;;;;8.82;7.47;;;;;;;;;;5048284;28;20025;-46
2022/10/08 03:38:14;;;;;;;;;;;;;;;;;;5048804;28;20037;-45
2022/10/08 03:40:40;;;;;;;10.13;8.15;;;;;;;;;;5046808;28;20124;-42
2022/10/08 03:43:05;;;;;;;13.88;7.78;;;;;;;;;;5048533;28;20045;-42
2022/10/08 03:45:31;;;;;;;12.63;7.97;;;;;;;;;;5044796;28;20808;-42
2022/10/08 03:47:56;;;;;;;16.23;8.63;;;;;;;;;;5046416;28;20111;-44
2022/10/08 03:50:22;;;;;;;10.00;7.85;;;;;;;;;;5045354;28;20095;-43
2022/10/08 03:52:47;;;;;;;10.30;8.75;;;;;;;;;;5039281;28;20397;-44
2022/10/08 03:55:12;;;;;;;9.82;8.82;;;;;;;;;;5049711;28;20509;-42
2022/10/08 03:57:38;;;;;;;16.38;8.52;;;;;;;;;;5045472;28;20757;-42
2022/10/08 04:00:04;;;;;;;10.10;9.00;;;;;;;;;;5045538;28;20052;-42
2022/10/08 04:02:31;;;;;;;10.65;8.05;;;;;;;;;;5045009;28;20052;-43
2022/10/08 04:04:56;;;;;;;10.93;9.30;;;;;;;;;;5046374;28;20028;-43
2022/10/08 04:07:21;;;;;;;13.25;8.68;;;;;;;;;;5046040;28;20037;-43
2022/10/08 04:09:47;;;;;;;10.48;8.98;;;;;;;;;;5037994;28;20053;-42
2022/10/08 04:12:12;;;;;;;17.80;9.20;;;;;;;;;;5045340;28;20040;-42
2022/10/08 04:14:37;;;;;;;11.02;9.75;;;;;;;;;;5048448;28;20099;-42
2022/10/08 04:17:03;;;;;;;14.23;9.70;;;;;;;;;;5047610;28;20053;-44
2022/10/08 04:19:28;;;;;;;12.02;10.18;;;;;;;;;;5045591;28;20029;-43
2022/10/08 04:21:53;;;;;;;10.30;9.30;;;;;;;;;;5049041;28;20064;-42
2022/10/08 04:24:19;;;;;;;11.70;10.15;;;;;;;;;;5045730;28;20428;-46
2022/10/08 04:26:44;;;;;;;10.70;9.40;;;;;;;;;;5044074;28;20027;-44
2022/10/08 04:29:11;;;;;;;20.38;10.27;;;;;;;;;;5045680;28;20083;-43
2022/10/08 04:31:37;;;;;;;20.67;12.02;;;;;;;;;;5042908;28;20468;-42
2022/10/08 04:34:02;;;;;;;25.75;17.90;;;;;;;;;;5045823;28;20124;-43
2022/10/08 04:36:27;;;;;;;27.70;21.25;;;;;;;;;;5043943;28;22583;-45
2022/10/08 04:38:53;;;;;;;30.65;22.90;;;;;;;;;;5038449;28;20053;-45
2022/10/08 04:41:24;;;;;;;32.15;23.70;;;;;;;;;;5049168;28;20017;-45
2022/10/08 04:43:50;;;;;;;26.15;21.70;;;;;;;;;;5045589;28;20036;-44
2022/10/08 04:46:18;;;;;;;23.13;17.77;;;;;;;;;;5046814;28;20021;-42
2022/10/08 04:48:48;;;;;;;27.45;17.05;;;;;;;;;;5046659;28;20128;-43
2022/10/08 04:51:14;;;;;;;21.02;16.27;;;;;;;;;;5043742;28;20373;-42
2022/10/08 04:53:40;;;;;;;26.70;17.90;;;;;;;;;;5047241;28;20061;-42
2022/10/08 04:56:20;;;;;;;30.95;19.52;;;;;;;;;;5043744;28;20061;-43
2022/10/08 04:58:46;;;;;;;51.95;31.60;;;;;;;;;;5041786;28;20095;-41
2022/10/08 05:01:14;;;;;;;47.38;31.30;;;;;;;;;;5046556;28;20725;-41
2022/10/08 05:03:42;;;;;;;52.10;30.38;;;;;;;;;;5045872;28;20078;-41
2022/10/08 05:06:08;;;;;;;46.90;31.05;;;;;;;;;;5047208;28;20162;-41
2022/10/08 05:08:34;;;;;;;39.90;25.38;;;;;;;;;;5044240;28;20122;-41
2022/10/08 05:10:59;;;;;;;31.85;23.95;;;;;;;;;;5044916;28;20052;-41
2022/10/08 05:13:25;;;;;;;34.88;22.08;;;;;;;;;;5044415;28;20581;-41
2022/10/08 05:15:50;;;;;;;24.77;21.30;;;;;;;;;;5046775;28;20430;-41
2022/10/08 05:18:16;;;;;;;25.98;20.40;;;;;;;;;;5046913;28;20662;-40
2022/10/08 05:20:41;;;;;;;22.67;18.75;;;;;;;;;;5048393;28;20119;-40
2022/10/08 05:23:07;;;;;;;26.70;18.02;;;;;;;;;;5042731;28;20087;-41
2022/10/08 05:25:33;;;;;;;22.55;17.00;;;;;;;;;;5044392;28;20492;-40
2022/10/08 05:27:59;;;;;;;23.15;17.50;;;;;;;;;;5047822;28;20057;-41
2022/10/08 05:30:25;;;;;;;21.92;17.85;;;;;;;;;;5043276;28;20017;-40
2022/10/08 05:32:50;;;;;;;19.63;17.35;;;;;;;;;;5046700;28;20433;-40
2022/10/08 05:35:15;;;;;;;23.85;17.48;;;;;;;;;;5044996;28;20523;-40
2022/10/08 05:37:41;;;;;;;20.25;16.52;;;;;;;;;;5044880;28;20052;-41
2022/10/08 05:40:06;;;;;;;21.60;16.77;;;;;;;;;;5043087;28;20031;-41
2022/10/08 05:42:32;;;;;;;21.05;16.50;;;;;;;;;;5044664;28;20040;-40
2022/10/08 05:44:57;;;;;;;21.92;16.92;;;;;;;;;;5045267;28;20033;-40
2022/10/08 05:47:22;;;;;;;20.58;16.58;;;;;;;;;;5043290;28;20044;-41
2022/10/08 05:49:48;;;;;;;23.02;19.75;;;;;;;;;;5046846;28;20029;-41
2022/10/08 05:52:13;;;;;;;30.85;21.90;;;;;;;;;;5045749;28;20045;-41
2022/10/08 05:54:38;;;;;;;21.70;17.85;;;;;;;;;;5046541;28;20041;-40
2022/10/08 05:57:04;;;;;;;21.25;15.95;;;;;;;;;;5042477;28;20064;-41
2022/10/08 05:59:29;;;;;;;18.60;16.60;;;;;;;;;;5046363;28;20374;-41
2022/10/08 06:01:55;;;;;;;22.33;16.77;;;;;;;;;;5047633;28;20032;-41
2022/10/08 06:04:20;;;;;;;23.17;16.08;;;;;;;;;;5045422;28;20469;-40
2022/10/08 06:06:46;;;;;;;23.33;15.65;;;;;;;;;;5046084;28;20033;-41
2022/10/08 06:09:13;;;;;;;20.25;15.30;;;;;;;;;;5044483;28;20021;-41
2022/10/08 06:11:39;;;;;;;16.45;14.60;;;;;;;;;;5049032;28;20554;-41
2022/10/08 06:14:06;;;;;;;20.90;15.23;;;;;;;;;;5042782;28;20041;-41
2022/10/08 06:16:32;;;;;;;20.30;16.17;;;;;;;;;;5046512;28;20040;-40
2022/10/08 06:18:57;;;;;;;19.42;15.77;;;;;;;;;;5045687;28;20119;-41
2022/10/08 06:21:25;;;;;;;20.45;17.02;;;;;;;;;;5045333;28;20100;-41
2022/10/08 06:23:55;;;;;;;22.10;17.50;;;;;;;;;;5049498;28;20456;-40
2022/10/08 06:26:24;;;;;;;36.38;20.70;;;;;;;;;;5045999;28;20056;-40
2022/10/08 06:28:50;;;;;;;27.20;19.13;;;;;;;;;;5035673;28;20071;-40
2022/10/08 06:31:16;;;;;;;30.40;20.08;;;;;;;;;;5050300;28;20060;-40
2022/10/08 06:33:41;;;;;;;26.70;19.73;;;;;;;;;;5049170;28;20131;-41
2022/10/08 06:36:17;;;;;;;22.70;17.58;;;;;;;;;;5050791;28;20100;-41
2022/10/08 06:38:47;;;;;;;23.00;17.63;;;;;;;;;;5048359;28;20060;-40
2022/10/08 06:41:12;;;;;;;21.88;16.55;;;;;;;;;;5054123;28;20039;-40
2022/10/08 06:43:37;;;;;;;25.83;15.32;;;;;;;;;;5048525;28;20623;-40
2022/10/08 06:46:04;;;;;;;20.77;14.98;;;;;;;;;;5047475;28;20029;-41
2022/10/08 06:48:30;;;;;;;20.13;14.60;;;;;;;;;;5047870;28;20091;-40
2022/10/08 06:50:58;;;;;;;18.90;15.40;;;;;;;;;;5048667;28;20041;-40
2022/10/08 06:53:23;;;;;;;16.95;14.23;;;;;;;;;;5051174;28;20041;-41
2022/10/08 06:55:48;;;;;;;18.20;14.80;;;;;;;;;;5049507;28;20087;-40
2022/10/08 06:58:14;;;;;;;22.52;14.52;;;;;;;;;;5047344;28;20046;-40
2022/10/08 07:00:39;;;;;;;22.58;15.23;;;;;;;;;;5047483;28;20107;-39
2022/10/08 07:03:04;;;;;;;20.92;15.27;;;;;;;;;;5042905;28;20531;-40
2022/10/08 07:05:31;;;;;;;18.17;14.98;;;;;;;;;;5045815;28;20389;-41
2022/10/08 07:07:57;;;;;;;24.75;16.80;;;;;;;;;;5048657;28;20040;-41
2022/10/08 07:10:22;;;;;;;21.23;16.63;;;;;;;;;;5048290;28;20029;-41
2022/10/08 07:12:47;;;;;;;30.05;18.55;;;;;;;;;;5042773;28;20037;-40
2022/10/08 07:15:13;;;;;;;29.23;21.45;;;;;;;;;;5040709;28;20045;-40
2022/10/08 07:17:38;;;;;;;29.52;22.48;;;;;;;;;;5039654;28;20034;-40
2022/10/08 07:20:04;;;;;;;25.50;19.20;;;;;;;;;;5043388;28;20047;-40
2022/10/08 07:22:29;;;;;;;22.17;17.73;;;;;;;;;;5044293;28;20041;-40
2022/10/08 07:24:55;;;;;;;20.20;17.38;;;;;;;;;;5042503;28;20064;-40
2022/10/08 07:27:21;;;;;;;23.90;16.58;;;;;;;;;;5043772;28;20523;-40
2022/10/08 07:29:46;;;;;;;18.65;14.65;;;;;;;;;;5043173;28;20033;-40
2022/10/08 07:32:11;;;;;;;16.80;14.35;;;;;;;;;;5042882;28;20055;-41
2022/10/08 07:34:37;;;;;;;16.45;13.68;;;;;;;;;;5045529;28;20037;-40
2022/10/08 07:37:02;;;;;;;14.63;13.05;;;;;;;;;;5039507;28;20044;-40
2022/10/08 07:39:28;;;;;;;14.88;13.27;;;;;;;;;;5040952;28;20087;-40
2022/10/08 07:41:53;;;;;;;17.13;13.85;;;;;;;;;;5041775;28;20037;-41
2022/10/08 07:44:18;;;;;;;15.05;13.52;;;;;;;;;;5042559;28;20997;-41
2022/10/08 07:46:52;;;;;;;17.80;12.32;;;;;;;;;;5042237;28;20186;-41
2022/10/08 07:49:18;;;;;;;18.17;13.00;;;;;;;;;;5049283;28;20044;-41
2022/10/08 07:51:44;;;;;;;19.30;13.25;;;;;;;;;;5042413;28;20029;-40
2022/10/08 07:54:13;;;;;;;18.67;13.73;;;;;;;;;;5039570;28;20052;-40
2022/10/08 07:56:39;;;;;;;16.83;12.57;;;;;;;;;;5046082;28;20584;-40
2022/10/08 07:59:05;;;;;;;14.60;12.85;;;;;;;;;;5043385;28;20057;-41
2022/10/08 08:01:32;;;;;;;20.80;13.15;;;;;;;;;;5043868;28;20029;-41
2022/10/08 08:04:04;;;;;;;16.85;13.10;;;;;;;;;;5043500;28;20124;-41
2022/10/08 08:06:30;;;;;;;15.55;12.88;;;;;;;;;;5044350;28;20033;-41
2022/10/08 08:08:58;;;;;;;17.40;12.52;;;;;;;;;;5046324;28;20045;-41
2022/10/08 08:11:24;;;;;;;16.50;13.00;;;;;;;;;;5042697;28;20026;-40
2022/10/08 08:13:50;;;;;;;16.45;13.98;;;;;;;;;;5030885;28;20113;-41
2022/10/08 08:16:18;;;;;;;17.17;12.73;;;;;;;;;;5042545;28;20241;-41
2022/10/08 08:18:46;;;;;;;18.60;12.82;;;;;;;;;;5041759;28;20049;-41
2022/10/08 08:21:16;;;;;;;19.67;14.45;;;;;;;;;;5042889;28;20044;-41
2022/10/08 08:23:44;;;;;;;15.18;13.50;;;;;;;;;;5046032;28;20053;-41
2022/10/08 08:26:12;;;;;;;15.02;13.43;;;;;;;;;;5045610;28;20358;-41
2022/10/08 08:28:37;;;;;;;23.15;14.15;;;;;;;;;;5045403;28;20049;-42
2022/10/08 08:31:11;;;;;;;18.48;13.45;;;;;;;;;;5044055;28;20037;-42
2022/10/08 08:33:37;;;;;;;16.27;12.93;;;;;;;;;;5045781;28;20555;-42
2022/10/08 08:36:03;;;;;;;17.33;13.43;;;;;;;;;;5045093;28;20037;-42
2022/10/08 08:38:29;;;;;;;15.27;13.45;;;;;;;;;;5045480;28;20029;-42
2022/10/08 08:41:11;;;;;;;14.80;12.35;;;;;;;;;;5045039;28;21207;-42
2022/10/08 08:43:36;;;;;;;17.17;12.80;;;;;;;;;;5046155;28;20052;-41
2022/10/08 08:46:02;;;;;;;14.98;13.38;;;;;;;;;;5046749;28;20021;-42
2022/10/08 08:48:32;;;;;;;20.00;13.85;;;;;;;;;;5046877;28;20477;-42
2022/10/08 08:50:58;;;;;;;16.33;14.25;;;;;;;;;;5045093;28;20029;-42
2022/10/08 08:53:24;;;;;;;21.48;13.15;;;;;;;;;;5045666;28;20040;-42
2022/10/08 08:55:54;;;;;;;23.00;13.82;;;;;;;;;;5045732;28;20041;-42
2022/10/08 08:58:34;;;;;;;16.20;13.40;;;;;;;;;;5043835;28;20044;-42
2022/10/08 09:01:03;;;;;;;18.20;12.68;;;;;;;;;;5047364;28;20041;-41
2022/10/08 09:03:44;;;;;;;15.57;12.23;;;;;;;;;;5047220;28;20171;-42
2022/10/08 09:06:16;;;;;;;13.90;12.60;;;;;;;;;;5046779;28;20028;-42
2022/10/08 09:09:03;;;;;;;16.20;12.70;;;;;;;;;;5045016;28;20029;-42
2022/10/08 09:11:29;;;;;;;15.68;11.48;;;;;;;;;;5046869;28;20381;-42
2022/10/08 09:14:13;;;;;;;12.60;11.30;;;;;;;;;;5043356;28;20049;-43
2022/10/08 09:16:39;;;;;;;13.80;12.30;;;;;;;;;;5045258;28;20029;-42
2022/10/08 09:19:04;;;;;;;12.93;10.70;;;;;;;;;;5045444;28;20075;-41
2022/10/08 09:21:32;;;;;;;12.50;11.20;;;;;;;;;;5045055;28;20037;-42
2022/10/08 09:23:57;;;;;;;11.18;10.07;;;;;;;;;;5043951;28;20040;-41
2022/10/08 09:26:29;;;;;;;11.10;9.88;;;;;;;;;;5045073;28;20025;-41
2022/10/08 09:28:57;;;;;;;10.35;9.32;;;;;;;;;;5044479;28;20041;-42
2022/10/08 09:31:25;;;;;;;10.27;9.27;;;;;;;;;;5046271;28;20029;-42
2022/10/08 09:33:57;;;;;;;11.75;9.13;;;;;;;;;;5043632;28;20041;-41
2022/10/08 09:36:50;;;;;;;12.93;9.10;;;;;;;;;;5045114;28;20033;-42
2022/10/08 09:39:25;;;;;;;12.85;9.60;;;;;;;;;;5041034;28;20048;-42
2022/10/08 09:42:06;;;;;;;14.60;9.70;;;;;;;;;;5045266;28;20051;-42
2022/10/08 09:44:59;;;;;;;10.20;9.20;;;;;;;;;;5043249;28;20052;-41
2022/10/08 09:47:26;;;;;;;10.75;9.52;;;;;;;;;;5045395;28;20705;-41
2022/10/08 09:50:15;;;;;;;10.23;9.20;;;;;;;;;;5044895;28;20083;-42
2022/10/08 09:52:41;;;;;;;10.52;8.70;;;;;;;;;;5045781;28;20396;-41
2022/10/08 09:55:15;;;;;;;10.18;9.15;;;;;;;;;;5045451;28;20138;-42
2022/10/08 09:57:54;;;;;;;17.73;9.25;;;;;;;;;;5050163;28;20399;-41
2022/10/08 10:00:29;;;;;;;23.08;9.57;;;;;;;;;;5046386;28;20047;-42
2022/10/08 10:02:57;;;;;;;12.15;9.52;;;;;;;;;;5046562;28;20107;-41
2022/10/08 10:05:28;;;;;;;11.10;9.30;;;;;;;;;;5047915;28;20061;-42
2022/10/08 10:07:54;;;;;;;32.40;10.63;;;;;;;;;;5047908;28;20029;-42
2022/10/08 10:10:28;;;;;;;9.25;8.35;;;;;;;;;;5048064;28;20524;-42
2022/10/08 10:13:00;;;;;;;9.25;8.35;;;;;;;;;;5048646;28;20155;-43
2022/10/08 10:15:57;;;;;;;13.07;8.90;;;;;;;;;;5047321;28;20462;-42
2022/10/08 10:19:15;;;;;;;8.20;7.50;;;;;;;;;;5046815;28;20439;-41
2022/10/08 10:21:56;;;;;;;9.57;8.00;;;;;;;;;;4985297;28;20046;-41
2022/10/08 10:24:50;;;;;;;9.60;7.75;;;;;;;;;;4986209;28;20043;-42
2022/10/08 10:27:25;;;;;;;8.27;7.05;;;;;;;;;;4984728;28;20517;-42
2022/10/08 10:30:22;;;;;;;7.72;7.07;;;;;;;;;;4986409;28;20062;-42
2022/10/08 10:32:57;;;;;;;7.82;6.43;;;;;;;;;;4986237;28;20026;-41
2022/10/08 10:35:26;;;;;;;8.32;6.90;;;;;;;;;;4984675;28;20138;-42
2022/10/08 10:38:14;;;;;;;7.55;6.18;;;;;;;;;;4988680;28;20045;-42
2022/10/08 10:41:02;;;;;;;11.25;7.45;;;;;;;;;;4986222;28;20069;-42
2022/10/08 10:43:47;;;;;;;9.55;7.22;;;;;;;;;;4985897;28;20123;-42
2022/10/08 10:46:38;;;;;;;14.25;7.60;;;;;;;;;;4986538;28;20026;-42
2022/10/08 10:49:22;;;;;;;6.43;5.75;;;;;;;;;;4987589;28;20194;-42
2022/10/08 10:52:11;;;;;;;9.38;6.53;;;;;;;;;;4982280;28;20523;-42
2022/10/08 10:54:52;;;;;;;11.63;6.38;;;;;;;;;;4982175;28;20416;-42
2022/10/08 10:57:33;;;;;;;8.50;6.28;;;;;;;;;;5015124;28;20434;-42
2022/10/08 11:00:08;;;;;;;6.82;6.13;;;;;;;;;;5047031;28;20045;-42
2022/10/08 11:02:43;;;;;;;8.45;6.93;;;;;;;;;;5047107;28;20115;-42
2022/10/08 11:05:25;;;;;;;7.47;6.38;;;;;;;;;;5046073;28;20041;-42
2022/10/08 11:08:20;;;;;;;9.13;7.05;;;;;;;;;;5048110;28;21886;-42
2022/10/08 11:11:12;;;;;;;8.07;6.55;;;;;;;;;;5034883;28;20056;-42
2022/10/08 11:13:56;;;;;;;8.05;6.70;;;;;;;;;;5046637;28;20040;-43
2022/10/08 11:16:42;;;;;;;11.30;5.75;;;;;;;;;;5046174;28;20055;-41
2022/10/08 11:19:41;;;;;;;8.32;5.95;;;;;;;;;;5048528;28;20045;-42
2022/10/08 11:22:22;;;;;;;6.05;5.25;;;;;;;;;;4967700;28;20061;-42
2022/10/08 11:25:14;;;;;;;8.48;5.13;;;;;;;;;;4965223;28;20070;-41
2022/10/08 11:27:58;;;;;;;7.90;5.60;;;;;;;;;;4967290;28;20506;-42
2022/10/08 11:30:42;;;;;;;5.15;4.65;;;;;;;;;;4967846;28;20058;-43
2022/10/08 11:33:12;;;;;;;9.75;4.38;;;;;;;;;;4968437;28;20042;-42
2022/10/08 11:36:08;;;;;;;5.03;4.55;;;;;;;;;;4968222;28;20042;-42
2022/10/08 11:38:39;;;;;;;7.90;4.47;;;;;;;;;;4966477;28;20061;-42
2022/10/08 11:41:17;;;;;;;8.38;4.60;;;;;;;;;;4966382;28;20121;-42
2022/10/08 11:43:51;;;;;;;6.53;4.82;;;;;;;;;;4968833;28;20499;-42
2022/10/08 11:46:30;;;;;;;5.63;4.53;;;;;;;;;;4961902;28;20106;-42
2022/10/08 11:48:57;;;;;;;3.72;3.42;;;;;;;;;;4965399;28;20042;-42
2022/10/08 11:51:22;;;;;;;3.85;3.25;;;;;;;;;;4968787;28;20038;-41
2022/10/08 11:54:08;;;;;;;3.92;3.53;;;;;;;;;;4966395;28;20038;-39
2022/10/08 11:56:41;;;;;;;6.50;3.95;;;;;;;;;;4965269;28;20054;-42
2022/10/08 11:59:35;;;;;;;8.25;4.95;;;;;;;;;;5005846;28;20033;-41
2022/10/08 12:02:04;;;;;;;5.30;4.80;;;;;;;;;;5046940;28;20048;-42
2022/10/08 12:04:39;;;;;;;4.75;4.28;;;;;;;;;;5046204;28;20037;-42
2022/10/08 12:07:16;;;;;;;4.85;4.28;;;;;;;;;;5043222;28;20132;-43
2022/10/08 12:10:06;;;;;;;4.65;4.20;;;;;;;;;;5044889;28;20044;-42
2022/10/08 12:12:50;;;;;;;6.65;4.00;;;;;;;;;;5045512;28;20039;-42
2022/10/08 12:15:26;;;;;;;4.13;3.70;;;;;;;;;;5049241;28;20041;-42
2022/10/08 12:18:22;;;;;;;3.88;3.58;;;;;;;;;;5047783;28;20094;-41
2022/10/08 12:21:19;;;;;;;3.63;3.33;;;;;;;;;;5044388;28;20079;-42
2022/10/08 12:23:44;;;;;;;5.68;3.80;;;;;;;;;;5034837;28;20111;-42
2022/10/08 12:26:13;;;;;;;2.97;2.67;;;;;;;;;;5048574;28;20044;-42
2022/10/08 12:28:41;;;;;;;3.45;3.13;;;;;;;;;;5046665;28;20099;-42
2022/10/08 12:31:26;;;;;;;51.78;7.00;;;;;;;;;;5045146;28;20037;-42
2022/10/08 12:33:59;;;;;;;4.20;3.10;;;;;;;;;;5045970;28;20049;-41
2022/10/08 12:36:39;;;;;;;6.47;3.08;;;;;;;;;;5045081;28;20033;-42
2022/10/08 12:39:16;;;;;;;4.65;3.20;;;;;;;;;;5047970;28;20044;-41
2022/10/08 12:42:15;;;;;;;12.77;3.67;;;;;;;;;;5047173;28;20037;-41
2022/10/08 12:44:46;;;;;;;4.18;3.15;;;;;;;;;;5045156;28;20045;-40
2022/10/08 12:47:43;;;;;;;4.85;3.28;;;;;;;;;;5044698;28;20039;-41
2022/10/08 12:50:26;;;;;;;3.85;3.10;;;;;;;;;;5046220;28;20044;-42
2022/10/08 12:52:52;;;;;;;5.82;3.20;;;;;;;;;;5045897;28;20021;-42
2022/10/08 12:55:22;;;;;;;3.08;2.78;;;;;;;;;;5047197;28;20047;-42
2022/10/08 12:57:48;;;;;;;6.07;3.38;;;;;;;;;;5043340;28;20115;-42
2022/10/08 13:00:17;;;;;;;4.55;3.40;;;;;;;;;;5047865;28;20041;-41
2022/10/08 13:02:43;;;;;;;6.07;3.17;;;;;;;;;;5043301;28;20099;-41
2022/10/08 13:05:24;;;;;;;3.33;2.88;;;;;;;;;;5043178;28;20934;-41
2022/10/08 13:07:49;;;;;;;4.13;2.50;;;;;;;;;;5046868;28;20072;-41
2022/10/08 13:10:18;;;;;;;5.30;2.85;;;;;;;;;;5046402;28;20048;-42
2022/10/08 13:12:56;;;;;;;4.28;2.22;;;;;;;;;;5046361;28;20036;-41
2022/10/08 13:15:23;;;;;;;3.65;2.67;;;;;;;;;;5043501;28;20076;-41
2022/10/08 13:17:49;;;;;;;3.35;2.92;;;;;;;;;;5044150;28;20090;-41
2022/10/08 13:20:18;;;;;;;3.35;2.63;;;;;;;;;;5044945;28;20146;-42
2022/10/08 13:22:44;;;;;;;3.00;2.80;;;;;;;;;;5046103;28;20025;-41
2022/10/08 13:25:32;;;;;;;6.88;5.85;;;;;;;;;;5038995;28;20051;-41
2022/10/08 13:28:19;;;;;;;4.68;4.28;;;;;;;;;;5044413;28;20091;-41
2022/10/08 13:30:45;;;;;;;7.80;5.53;;;;;;;;;;5043431;28;20049;-42
2022/10/08 13:33:14;;;;;;;5.35;4.32;;;;;;;;;;5047039;28;20098;-42
2022/10/08 13:35:41;;;;;;;7.60;4.60;;;;;;;;;;5043925;28;20554;-41
2022/10/08 13:38:08;;;;;;;5.82;3.50;;;;;;;;;;5046134;28;21151;-41
2022/10/08 13:40:34;;;;;;;5.60;5.10;;;;;;;;;;5041733;28;20098;-41
2022/10/08 13:43:00;;;;;;;7.95;5.45;;;;;;;;;;5043370;28;20023;-41
2022/10/08 13:45:35;;;;;;;6.68;5.70;;;;;;;;;;5040484;28;20082;-42
2022/10/08 13:48:00;;;;;;;8.30;6.45;;;;;;;;;;5043681;28;20032;-41
2022/10/08 13:50:26;;;;;;;9.32;6.25;;;;;;;;;;5042706;28;20045;-42
2022/10/08 13:52:54;;;;;;;7.20;6.07;;;;;;;;;;5044498;28;20029;-40
2022/10/08 13:55:31;;;;;;;8.82;5.95;;;;;;;;;;5043492;28;20053;-41
2022/10/08 13:57:58;;;;;;;8.27;6.07;;;;;;;;;;5047424;28;20059;-41
2022/10/08 14:00:25;;;;;;;14.75;6.70;;;;;;;;;;5043358;28;20067;-41
2022/10/08 14:02:52;;;;;;;10.18;6.97;;;;;;;;;;5046133;28;20111;-42
2022/10/08 14:05:18;;;;;;;8.88;5.72;;;;;;;;;;5043741;28;20568;-41
2022/10/08 14:07:47;;;;;;;8.18;6.95;;;;;;;;;;5044739;28;20549;-41
2022/10/08 14:10:12;;;;;;;8.70;7.80;;;;;;;;;;5044148;28;20497;-41
2022/10/08 14:12:38;;;;;;;11.18;8.27;;;;;;;;;;5044597;28;20047;-42
2022/10/08 14:15:04;;;;;;;10.35;8.13;;;;;;;;;;5045841;28;20076;-41
2022/10/08 14:17:31;;;;;;;13.82;9.13;;;;;;;;;;5041998;28;20021;-42
2022/10/08 14:19:57;;;;;;;11.40;8.98;;;;;;;;;;5042483;28;20190;-42
2022/10/08 14:22:23;;;;;;;12.07;8.85;;;;;;;;;;5047607;28;20397;-40
2022/10/08 14:24:49;;;;;;;11.02;9.20;;;;;;;;;;5045853;28;20498;-40
2022/10/08 14:27:15;;;;;;;13.48;8.65;;;;;;;;;;5040662;28;20041;-41
2022/10/08 14:29:40;;;;;;;12.07;8.57;;;;;;;;;;5036919;28;20079;-41
2022/10/08 14:32:08;;;;;;;12.88;9.30;;;;;;;;;;5042979;28;20044;-41
2022/10/08 14:34:34;;;;;;;17.70;10.10;;;;;;;;;;5046679;28;20044;-41
2022/10/08 14:36:59;;;;;;;15.10;9.93;;;;;;;;;;5040457;28;20032;-41
2022/10/08 14:39:25;;;;;;;12.02;8.90;;;;;;;;;;5042345;28;20044;-40
2022/10/08 14:41:51;;;;;;;8.75;7.72;;;;;;;;;;5039162;28;20090;-41
2022/10/08 14:44:20;;;;;;;10.38;6.97;;;;;;;;;;5049479;28;20041;-41
2022/10/08 14:46:47;;;;;;;10.27;7.35;;;;;;;;;;5046954;28;20206;-41
2022/10/08 14:49:13;;;;;;;13.20;8.18;;;;;;;;;;5044395;28;20037;-40
2022/10/08 14:51:38;;;;;;;9.85;7.43;;;;;;;;;;5046973;28;20423;-41